EXS3638 EGHH-BIKF
Flight info
| Callsign | EXS3638 |
|---|---|
| Flight time | 1h 51m |
| Altitude | 36000 |
| Route | SAM Q41 NORRY DCT CPT UN859 HON DCT POL UN601 TLA DCT STN DCT BILLY DCT BARKU DCT RATSU/M079F360 DCT 62N014W DCT ALDAN DCT ASRUN ASRUN4N |
| Aircraft | B738/M-SDE2E3FGHIRWXY/LB1 |
Departure
| Time | 2026-05-05 18:56 |
|---|---|
| Airport | Bournemouth Airport (EGHH) |
Arrival
| Time | 2026-05-05 20:47 |
|---|---|
| Airport | Keflavik International Airport (BIKF) |
| Time | Latitude | Longitude | Altitude | Speed | Heading |
|---|---|---|---|---|---|
| 2026-05-05 18:28 | 50.77805 | -1.83377 | 45 ft | 0 kts | 85° |
| 2026-05-05 18:44 | 50.77804 | -1.83396 | 45 ft | 4 kts | 91° |
| 2026-05-05 18:44 | 50.77809 | -1.83436 | 43 ft | 4 kts | 118° |
| 2026-05-05 18:44 | 50.77825 | -1.83466 | 41 ft | 4 kts | 157° |
| 2026-05-05 18:44 | 50.77838 | -1.83472 | 40 ft | 0 kts | 176° |
| 2026-05-05 18:47 | 50.77804 | -1.83468 | 43 ft | 13 kts | 176° |
| 2026-05-05 18:47 | 50.77714 | -1.83468 | 43 ft | 13 kts | 195° |
| 2026-05-05 18:47 | 50.77625 | -1.83485 | 44 ft | 13 kts | 197° |
| 2026-05-05 18:47 | 50.77574 | -1.83645 | 45 ft | 20 kts | 271° |
| 2026-05-05 18:48 | 50.77585 | -1.83855 | 45 ft | 19 kts | 280° |
| 2026-05-05 18:48 | 50.77613 | -1.84055 | 42 ft | 18 kts | 284° |
| 2026-05-05 18:48 | 50.77648 | -1.84247 | 45 ft | 18 kts | 289° |
| 2026-05-05 18:48 | 50.77687 | -1.84441 | 44 ft | 18 kts | 284° |
| 2026-05-05 18:49 | 50.77715 | -1.84635 | 43 ft | 18 kts | 280° |
| 2026-05-05 18:49 | 50.77746 | -1.84818 | 43 ft | 17 kts | 296° |
| 2026-05-05 18:49 | 50.77768 | -1.84884 | 45 ft | 0 kts | 299° |
| 2026-05-05 18:53 | 50.77792 | -1.84952 | 45 ft | 15 kts | 299° |
| 2026-05-05 18:54 | 50.77849 | -1.85114 | 47 ft | 18 kts | 296° |
| 2026-05-05 18:54 | 50.77831 | -1.85306 | 47 ft | 18 kts | 255° |
| 2026-05-05 18:54 | 50.77796 | -1.85514 | 46 ft | 23 kts | 255° |
| 2026-05-05 18:54 | 50.77720 | -1.85722 | 45 ft | 20 kts | 224° |
| 2026-05-05 18:55 | 50.77760 | -1.85739 | 44 ft | 12 kts | 67° |
| 2026-05-05 18:55 | 50.77772 | -1.85669 | 44 ft | 0 kts | 75° |
| 2026-05-05 18:55 | 50.77772 | -1.85668 | 44 ft | 2 kts | 75° |
| 2026-05-05 18:55 | 50.77840 | -1.85258 | 47 ft | 86 kts | 75° |
| 2026-05-05 18:56 | 50.78065 | -1.83884 | 98 ft | 165 kts | 73° |
| 2026-05-05 18:56 | 50.78345 | -1.81984 | 855 ft | 188 kts | 74° |
| 2026-05-05 18:56 | 50.78669 | -1.79881 | 1846 ft | 203 kts | 72° |
| 2026-05-05 18:56 | 50.79053 | -1.77565 | 2599 ft | 226 kts | 72° |
| 2026-05-05 18:57 | 50.79473 | -1.75088 | 3393 ft | 247 kts | 72° |
| 2026-05-05 18:57 | 50.79942 | -1.72379 | 4142 ft | 259 kts | 72° |
| 2026-05-05 18:57 | 50.80657 | -1.69823 | 5040 ft | 258 kts | 52° |
| 2026-05-05 18:57 | 50.81784 | -1.67627 | 6054 ft | 259 kts | 50° |
| 2026-05-05 18:58 | 50.82904 | -1.65341 | 6900 ft | 266 kts | 52° |
| 2026-05-05 18:58 | 50.83995 | -1.62958 | 7766 ft | 270 kts | 53° |
| 2026-05-05 18:58 | 50.85068 | -1.60491 | 8634 ft | 275 kts | 54° |
| 2026-05-05 18:58 | 50.86138 | -1.57944 | 9453 ft | 280 kts | 55° |
| 2026-05-05 18:59 | 50.87206 | -1.55342 | 9844 ft | 282 kts | 55° |
| 2026-05-05 18:59 | 50.88277 | -1.52694 | 9930 ft | 289 kts | 55° |
| 2026-05-05 18:59 | 50.89357 | -1.49998 | 9942 ft | 289 kts | 56° |
| 2026-05-05 18:59 | 50.90423 | -1.47321 | 9939 ft | 286 kts | 56° |
| 2026-05-05 19:00 | 50.91497 | -1.44620 | 10247 ft | 296 kts | 56° |
| 2026-05-05 19:00 | 50.92646 | -1.41730 | 10658 ft | 324 kts | 56° |
| 2026-05-05 19:00 | 50.93901 | -1.38569 | 11069 ft | 353 kts | 56° |
| 2026-05-05 19:00 | 50.95534 | -1.35519 | 11447 ft | 376 kts | 38° |
| 2026-05-05 19:01 | 50.97851 | -1.33400 | 11862 ft | 396 kts | 18° |
| 2026-05-05 19:01 | 51.00528 | -1.32521 | 13149 ft | 387 kts | 8° |
| 2026-05-05 19:01 | 51.03145 | -1.31972 | 14744 ft | 371 kts | 7° |
| 2026-05-05 19:01 | 51.05681 | -1.31469 | 16038 ft | 366 kts | 7° |
| 2026-05-05 19:02 | 51.08229 | -1.30960 | 16746 ft | 375 kts | 7° |
| 2026-05-05 19:02 | 51.10856 | -1.30421 | 17388 ft | 384 kts | 7° |
| 2026-05-05 19:02 | 51.13514 | -1.29860 | 18177 ft | 388 kts | 8° |
| 2026-05-05 19:02 | 51.16215 | -1.29279 | 18792 ft | 394 kts | 7° |
| 2026-05-05 19:03 | 51.18933 | -1.28688 | 19515 ft | 395 kts | 7° |
| 2026-05-05 19:03 | 51.21663 | -1.28090 | 20128 ft | 400 kts | 7° |
| 2026-05-05 19:03 | 51.24447 | -1.27477 | 20680 ft | 405 kts | 7° |
| 2026-05-05 19:03 | 51.27248 | -1.26860 | 21315 ft | 408 kts | 7° |
| 2026-05-05 19:04 | 51.30074 | -1.26237 | 21888 ft | 412 kts | 6° |
| 2026-05-05 19:04 | 51.32928 | -1.25608 | 22445 ft | 416 kts | 6° |
| 2026-05-05 19:04 | 51.35815 | -1.24970 | 22911 ft | 421 kts | 6° |
| 2026-05-05 19:04 | 51.38730 | -1.24325 | 23456 ft | 425 kts | 6° |
| 2026-05-05 19:05 | 51.41670 | -1.23674 | 23919 ft | 428 kts | 6° |
| 2026-05-05 19:05 | 51.44621 | -1.23019 | 24320 ft | 432 kts | 6° |
| 2026-05-05 19:05 | 51.47618 | -1.22556 | 24702 ft | 434 kts | 358° |
| 2026-05-05 19:05 | 51.50638 | -1.22885 | 25083 ft | 435 kts | 349° |
| 2026-05-05 19:06 | 51.53582 | -1.24007 | 25475 ft | 436 kts | 340° |
| 2026-05-05 19:06 | 51.56435 | -1.25517 | 25851 ft | 439 kts | 339° |
| 2026-05-05 19:06 | 51.59382 | -1.27109 | 26179 ft | 443 kts | 339° |
| 2026-05-05 19:06 | 51.62272 | -1.28622 | 26493 ft | 447 kts | 340° |
| 2026-05-05 19:07 | 51.65286 | -1.30159 | 26850 ft | 450 kts | 340° |
| 2026-05-05 19:07 | 51.67268 | -1.31156 | 27083 ft | 452 kts | 340° |
| 2026-05-05 19:07 | 51.71242 | -1.33146 | 27716 ft | 450 kts | 340° |
| 2026-05-05 19:07 | 51.74260 | -1.34662 | 28252 ft | 448 kts | 340° |
| 2026-05-05 19:08 | 51.77232 | -1.36162 | 28797 ft | 446 kts | 340° |
| 2026-05-05 19:08 | 51.80180 | -1.37660 | 29358 ft | 444 kts | 340° |
| 2026-05-05 19:08 | 51.83121 | -1.39162 | 29925 ft | 442 kts | 339° |
| 2026-05-05 19:08 | 51.86040 | -1.40657 | 30425 ft | 439 kts | 339° |
| 2026-05-05 19:09 | 51.88946 | -1.42149 | 30918 ft | 436 kts | 340° |
| 2026-05-05 19:09 | 51.91828 | -1.43629 | 31414 ft | 433 kts | 340° |
| 2026-05-05 19:09 | 51.94696 | -1.45103 | 31925 ft | 430 kts | 340° |
| 2026-05-05 19:09 | 51.97504 | -1.46549 | 32438 ft | 427 kts | 340° |
| 2026-05-05 19:10 | 52.00318 | -1.47998 | 32989 ft | 422 kts | 340° |
| 2026-05-05 19:10 | 52.03143 | -1.49456 | 33525 ft | 418 kts | 340° |
| 2026-05-05 19:10 | 52.05899 | -1.50880 | 34081 ft | 413 kts | 340° |
| 2026-05-05 19:10 | 52.08624 | -1.52290 | 34542 ft | 409 kts | 340° |
| 2026-05-05 19:11 | 52.11316 | -1.53684 | 35005 ft | 404 kts | 340° |
| 2026-05-05 19:11 | 52.13970 | -1.55060 | 35475 ft | 398 kts | 340° |
| 2026-05-05 19:11 | 52.16592 | -1.56422 | 35867 ft | 395 kts | 340° |
| 2026-05-05 19:11 | 52.19235 | -1.57798 | 35932 ft | 401 kts | 340° |
| 2026-05-05 19:12 | 52.24634 | -1.60614 | 35996 ft | 414 kts | 340° |
| 2026-05-05 19:12 | 52.29255 | -1.63027 | 36010 ft | 425 kts | 340° |
| 2026-05-05 19:13 | 52.34982 | -1.66021 | 36009 ft | 439 kts | 341° |
| 2026-05-05 19:13 | 52.42024 | -1.68611 | 36007 ft | 454 kts | 348° |
| 2026-05-05 19:14 | 52.47296 | -1.70112 | 36005 ft | 463 kts | 348° |
| 2026-05-05 19:14 | 52.53689 | -1.71965 | 36003 ft | 469 kts | 348° |
| 2026-05-05 19:15 | 52.60062 | -1.73896 | 35985 ft | 468 kts | 348° |
| 2026-05-05 19:15 | 52.66526 | -1.75899 | 35982 ft | 460 kts | 348° |
| 2026-05-05 19:16 | 52.72560 | -1.77782 | 35992 ft | 459 kts | 348° |
| 2026-05-05 19:16 | 52.83600 | -1.81235 | 36003 ft | 458 kts | 348° |
| 2026-05-05 19:17 | 52.96225 | -1.85200 | 36008 ft | 458 kts | 347° |
| 2026-05-05 19:17 | 53.08721 | -1.89155 | 36011 ft | 457 kts | 348° |
| 2026-05-05 19:18 | 53.21203 | -1.93119 | 36016 ft | 456 kts | 347° |
| 2026-05-05 19:18 | 53.33697 | -1.97112 | 36028 ft | 457 kts | 347° |
| 2026-05-05 19:19 | 53.46186 | -2.01133 | 36036 ft | 457 kts | 347° |
| 2026-05-05 19:19 | 53.58688 | -2.05177 | 36033 ft | 458 kts | 347° |
| 2026-05-05 19:20 | 53.71201 | -2.09254 | 36039 ft | 459 kts | 347° |
| 2026-05-05 19:20 | 53.77346 | -2.12033 | 36046 ft | 455 kts | 334° |
| 2026-05-05 19:20 | 53.83153 | -2.16321 | 36055 ft | 455 kts | 335° |
| 2026-05-05 19:21 | 53.94916 | -2.24404 | 36055 ft | 457 kts | 335° |
| 2026-05-05 19:21 | 54.06715 | -2.32531 | 36048 ft | 457 kts | 335° |
| 2026-05-05 19:22 | 54.18495 | -2.40706 | 36048 ft | 457 kts | 335° |
| 2026-05-05 19:22 | 54.30286 | -2.48889 | 36060 ft | 457 kts | 335° |
| 2026-05-05 19:23 | 54.42068 | -2.57126 | 36058 ft | 457 kts | 335° |
| 2026-05-05 19:23 | 54.53782 | -2.65371 | 36069 ft | 457 kts | 334° |
| 2026-05-05 19:24 | 54.65528 | -2.73730 | 36069 ft | 456 kts | 335° |
| 2026-05-05 19:24 | 54.77238 | -2.82097 | 36079 ft | 455 kts | 334° |
| 2026-05-05 19:25 | 54.88920 | -2.90476 | 36060 ft | 454 kts | 334° |
| 2026-05-05 19:25 | 55.00551 | -2.98934 | 36084 ft | 453 kts | 334° |
| 2026-05-05 19:26 | 55.12184 | -3.07445 | 36076 ft | 452 kts | 334° |
| 2026-05-05 19:26 | 55.23800 | -3.15909 | 36106 ft | 452 kts | 334° |
| 2026-05-05 19:27 | 55.35385 | -3.24483 | 36087 ft | 451 kts | 333° |
| 2026-05-05 19:27 | 55.46959 | -3.33105 | 36106 ft | 451 kts | 334° |
| 2026-05-05 19:28 | 55.58111 | -3.42980 | 36098 ft | 448 kts | 327° |
| 2026-05-05 19:28 | 55.68978 | -3.53725 | 36107 ft | 447 kts | 328° |
| 2026-05-05 19:29 | 55.79875 | -3.64366 | 36101 ft | 447 kts | 328° |
| 2026-05-05 19:29 | 55.90754 | -3.75038 | 36105 ft | 446 kts | 328° |
| 2026-05-05 19:30 | 56.01548 | -3.85701 | 36112 ft | 446 kts | 327° |
| 2026-05-05 19:30 | 56.12379 | -3.96469 | 36113 ft | 445 kts | 327° |
| 2026-05-05 19:31 | 56.23193 | -4.07290 | 36115 ft | 445 kts | 327° |
| 2026-05-05 19:31 | 56.34029 | -4.18205 | 36101 ft | 446 kts | 327° |
| 2026-05-05 19:32 | 56.44838 | -4.29164 | 36109 ft | 446 kts | 327° |
| 2026-05-05 19:32 | 56.55636 | -4.40185 | 36112 ft | 446 kts | 327° |
| 2026-05-05 19:33 | 56.66422 | -4.51265 | 36102 ft | 446 kts | 327° |
| 2026-05-05 19:33 | 56.77217 | -4.62428 | 36138 ft | 445 kts | 326° |
| 2026-05-05 19:34 | 56.87977 | -4.73631 | 36107 ft | 445 kts | 326° |
| 2026-05-05 19:35 | 57.04107 | -4.90565 | 36135 ft | 445 kts | 326° |
| 2026-05-05 19:35 | 57.14847 | -5.01936 | 36113 ft | 445 kts | 326° |
| 2026-05-05 19:36 | 57.25567 | -5.13363 | 36120 ft | 445 kts | 326° |
| 2026-05-05 19:36 | 57.36282 | -5.24862 | 36122 ft | 444 kts | 325° |
| 2026-05-05 19:37 | 57.46863 | -5.36294 | 36129 ft | 443 kts | 325° |
| 2026-05-05 19:37 | 57.57480 | -5.47844 | 36147 ft | 442 kts | 325° |
| 2026-05-05 19:38 | 57.68136 | -5.59517 | 36147 ft | 441 kts | 325° |
| 2026-05-05 19:38 | 57.78637 | -5.71098 | 36145 ft | 440 kts | 325° |
| 2026-05-05 19:39 | 57.89166 | -5.82789 | 36147 ft | 439 kts | 324° |
| 2026-05-05 19:39 | 57.99655 | -5.94518 | 36153 ft | 438 kts | 324° |
| 2026-05-05 19:40 | 58.10111 | -6.06291 | 36171 ft | 438 kts | 324° |
| 2026-05-05 19:40 | 58.20568 | -6.18145 | 36156 ft | 437 kts | 324° |
| 2026-05-05 19:41 | 58.30744 | -6.30636 | 36157 ft | 435 kts | 322° |
| 2026-05-05 19:41 | 58.40853 | -6.43327 | 36167 ft | 436 kts | 323° |
| 2026-05-05 19:42 | 58.50992 | -6.56056 | 36161 ft | 435 kts | 322° |
| 2026-05-05 19:42 | 58.61092 | -6.68821 | 36163 ft | 435 kts | 322° |
| 2026-05-05 19:43 | 58.71171 | -6.81653 | 36167 ft | 435 kts | 322° |
| 2026-05-05 19:43 | 58.81238 | -6.94559 | 36164 ft | 435 kts | 322° |
| 2026-05-05 19:44 | 58.91297 | -7.07546 | 36160 ft | 435 kts | 322° |
| 2026-05-05 19:44 | 59.01292 | -7.20543 | 36164 ft | 435 kts | 322° |
| 2026-05-05 19:45 | 59.11313 | -7.33668 | 36199 ft | 434 kts | 321° |
| 2026-05-05 19:45 | 59.21314 | -7.46860 | 36165 ft | 434 kts | 321° |
| 2026-05-05 19:46 | 59.31282 | -7.60102 | 36166 ft | 433 kts | 321° |
| 2026-05-05 19:46 | 59.41234 | -7.73421 | 36187 ft | 432 kts | 321° |
| 2026-05-05 19:47 | 59.51137 | -7.86771 | 36160 ft | 431 kts | 321° |
| 2026-05-05 19:47 | 59.60992 | -8.00152 | 36166 ft | 430 kts | 321° |
| 2026-05-05 19:48 | 59.70816 | -8.13588 | 36172 ft | 429 kts | 321° |
| 2026-05-05 19:48 | 59.80599 | -8.27066 | 36159 ft | 428 kts | 321° |
| 2026-05-05 19:49 | 59.90361 | -8.40613 | 36161 ft | 427 kts | 321° |
| 2026-05-05 19:49 | 60.00081 | -8.54199 | 36171 ft | 426 kts | 321° |
| 2026-05-05 19:50 | 60.09765 | -8.67839 | 36150 ft | 425 kts | 320° |
| 2026-05-05 19:50 | 60.19394 | -8.81504 | 36206 ft | 423 kts | 320° |
| 2026-05-05 19:51 | 60.29007 | -8.95248 | 36162 ft | 423 kts | 320° |
| 2026-05-05 19:51 | 60.38565 | -9.09014 | 36165 ft | 422 kts | 320° |
| 2026-05-05 19:52 | 60.48093 | -9.22840 | 36176 ft | 422 kts | 320° |
| 2026-05-05 19:52 | 60.57568 | -9.36688 | 36166 ft | 422 kts | 320° |
| 2026-05-05 19:53 | 60.67138 | -9.50780 | 36165 ft | 422 kts | 320° |
| 2026-05-05 19:53 | 60.76643 | -9.64884 | 36163 ft | 423 kts | 320° |
| 2026-05-05 19:54 | 60.86158 | -9.79110 | 36166 ft | 424 kts | 320° |
| 2026-05-05 19:54 | 60.95703 | -9.93486 | 36164 ft | 425 kts | 320° |
| 2026-05-05 19:54 | 61.00011 | -10.01437 | 36180 ft | 421 kts | 308° |
| 2026-05-05 19:55 | 61.03209 | -10.11499 | 36185 ft | 419 kts | 297° |
| 2026-05-05 19:55 | 61.08853 | -10.32639 | 36166 ft | 421 kts | 297° |
| 2026-05-05 19:56 | 61.14536 | -10.53873 | 36167 ft | 422 kts | 297° |
| 2026-05-05 19:56 | 61.20193 | -10.75179 | 36163 ft | 422 kts | 297° |
| 2026-05-05 19:57 | 61.25815 | -10.96558 | 36170 ft | 422 kts | 297° |
| 2026-05-05 19:57 | 61.31410 | -11.18041 | 36168 ft | 422 kts | 297° |
| 2026-05-05 19:58 | 61.36954 | -11.39533 | 36166 ft | 421 kts | 297° |
| 2026-05-05 19:58 | 61.42450 | -11.61052 | 36184 ft | 420 kts | 297° |
| 2026-05-05 19:59 | 61.47893 | -11.82567 | 36169 ft | 421 kts | 297° |
| 2026-05-05 19:59 | 61.53333 | -12.04281 | 36170 ft | 421 kts | 297° |
| 2026-05-05 20:00 | 61.58730 | -12.26037 | 36176 ft | 420 kts | 296° |
| 2026-05-05 20:00 | 61.64080 | -12.47817 | 36177 ft | 419 kts | 296° |
| 2026-05-05 20:01 | 61.69395 | -12.69675 | 36183 ft | 420 kts | 296° |
| 2026-05-05 20:01 | 61.74693 | -12.91681 | 36163 ft | 420 kts | 296° |
| 2026-05-05 20:02 | 61.79946 | -13.13721 | 36184 ft | 420 kts | 296° |
| 2026-05-05 20:02 | 61.85162 | -13.35834 | 36174 ft | 420 kts | 296° |
| 2026-05-05 20:03 | 61.90357 | -13.58079 | 36185 ft | 421 kts | 296° |
| 2026-05-05 20:03 | 61.95520 | -13.80422 | 36174 ft | 422 kts | 295° |
| 2026-05-05 20:04 | 62.00655 | -14.02857 | 36183 ft | 422 kts | 295° |
| 2026-05-05 20:04 | 62.04932 | -14.21557 | 36192 ft | 422 kts | 295° |
| 2026-05-05 20:05 | 62.10878 | -14.47808 | 36195 ft | 423 kts | 295° |
| 2026-05-05 20:05 | 62.15964 | -14.70535 | 36175 ft | 424 kts | 295° |
| 2026-05-05 20:06 | 62.20191 | -14.89613 | 36186 ft | 423 kts | 295° |
| 2026-05-05 20:06 | 62.25192 | -15.12407 | 36189 ft | 422 kts | 295° |
| 2026-05-05 20:07 | 62.30122 | -15.35119 | 36207 ft | 423 kts | 295° |
| 2026-05-05 20:07 | 62.35072 | -15.58178 | 36197 ft | 425 kts | 295° |
| 2026-05-05 20:08 | 62.39990 | -15.81341 | 36195 ft | 426 kts | 294° |
| 2026-05-05 20:08 | 62.44880 | -16.04627 | 36195 ft | 426 kts | 294° |
| 2026-05-05 20:09 | 62.49743 | -16.28052 | 36217 ft | 427 kts | 294° |
| 2026-05-05 20:09 | 62.54571 | -16.51571 | 36188 ft | 427 kts | 294° |
| 2026-05-05 20:10 | 62.59360 | -16.75166 | 36197 ft | 428 kts | 294° |
| 2026-05-05 20:10 | 62.64111 | -16.98852 | 36196 ft | 428 kts | 294° |
| 2026-05-05 20:11 | 62.68831 | -17.22658 | 36224 ft | 428 kts | 294° |
| 2026-05-05 20:11 | 62.73512 | -17.46546 | 36190 ft | 429 kts | 293° |
| 2026-05-05 20:12 | 62.78157 | -17.70534 | 36197 ft | 429 kts | 293° |
| 2026-05-05 20:12 | 62.80761 | -17.84108 | 36189 ft | 430 kts | 293° |
| 2026-05-05 20:18 | 62.82807 | -17.94844 | 36189 ft | 430 kts | 293° |
| 2026-05-05 20:19 | 62.85099 | -18.06930 | 36193 ft | 430 kts | 293° |
| 2026-05-05 20:19 | 62.87378 | -18.19026 | 36193 ft | 430 kts | 293° |
| 2026-05-05 20:20 | 62.89649 | -18.31153 | 36186 ft | 430 kts | 293° |
| 2026-05-05 20:20 | 62.91915 | -18.43330 | 36192 ft | 431 kts | 293° |
| 2026-05-05 20:21 | 62.94172 | -18.55531 | 36191 ft | 432 kts | 293° |
| 2026-05-05 20:21 | 62.95303 | -18.61661 | 36043 ft | 435 kts | 292° |
| 2026-05-05 20:21 | 62.96441 | -18.67860 | 35525 ft | 437 kts | 292° |
| 2026-05-05 20:21 | 62.97598 | -18.73993 | 35066 ft | 432 kts | 296° |
| 2026-05-05 20:22 | 62.99020 | -18.79746 | 34554 ft | 427 kts | 303° |
| 2026-05-05 20:22 | 63.00750 | -18.85050 | 33965 ft | 425 kts | 306° |
| 2026-05-05 20:22 | 63.02496 | -18.90278 | 33303 ft | 423 kts | 306° |
| 2026-05-05 20:22 | 63.04210 | -18.95418 | 32672 ft | 420 kts | 305° |
| 2026-05-05 20:23 | 63.05948 | -19.00666 | 32034 ft | 417 kts | 305° |
| 2026-05-05 20:23 | 63.07621 | -19.05751 | 31429 ft | 414 kts | 304° |
| 2026-05-05 20:23 | 63.09312 | -19.10926 | 30857 ft | 419 kts | 304° |
| 2026-05-05 20:23 | 63.11019 | -19.16172 | 30271 ft | 423 kts | 304° |
| 2026-05-05 20:24 | 63.12734 | -19.21458 | 29528 ft | 422 kts | 304° |
| 2026-05-05 20:24 | 63.14431 | -19.26702 | 28801 ft | 417 kts | 304° |
| 2026-05-05 20:24 | 63.16110 | -19.31905 | 28114 ft | 414 kts | 303° |
| 2026-05-05 20:24 | 63.17786 | -19.37113 | 27450 ft | 418 kts | 303° |
| 2026-05-05 20:25 | 63.19478 | -19.42385 | 26787 ft | 422 kts | 303° |
| 2026-05-05 20:25 | 63.21178 | -19.47694 | 26143 ft | 424 kts | 303° |
| 2026-05-05 20:25 | 63.22879 | -19.53010 | 25507 ft | 420 kts | 303° |
| 2026-05-05 20:25 | 63.24558 | -19.58272 | 24888 ft | 416 kts | 302° |
| 2026-05-05 20:26 | 63.26224 | -19.63505 | 24294 ft | 413 kts | 302° |
| 2026-05-05 20:26 | 63.27870 | -19.68685 | 23677 ft | 409 kts | 302° |
| 2026-05-05 20:26 | 63.29499 | -19.73828 | 22945 ft | 405 kts | 302° |
| 2026-05-05 20:26 | 63.31107 | -19.78916 | 22225 ft | 401 kts | 302° |
| 2026-05-05 20:27 | 63.32700 | -19.83967 | 21521 ft | 397 kts | 302° |
| 2026-05-05 20:27 | 63.34278 | -19.88983 | 20844 ft | 393 kts | 302° |
| 2026-05-05 20:27 | 63.35817 | -19.93883 | 20189 ft | 390 kts | 302° |
| 2026-05-05 20:27 | 63.37362 | -19.98818 | 19537 ft | 386 kts | 302° |
| 2026-05-05 20:28 | 63.38891 | -20.03708 | 18902 ft | 383 kts | 301° |
| 2026-05-05 20:28 | 63.40408 | -20.08574 | 18247 ft | 381 kts | 301° |
| 2026-05-05 20:28 | 63.41915 | -20.13418 | 17543 ft | 379 kts | 302° |
| 2026-05-05 20:28 | 63.43414 | -20.18246 | 16834 ft | 378 kts | 302° |
| 2026-05-05 20:29 | 63.44910 | -20.23076 | 16146 ft | 378 kts | 302° |
| 2026-05-05 20:29 | 63.46402 | -20.27903 | 15471 ft | 378 kts | 302° |
| 2026-05-05 20:29 | 63.47895 | -20.32744 | 14821 ft | 378 kts | 302° |
| 2026-05-05 20:29 | 63.49388 | -20.37598 | 14182 ft | 379 kts | 303° |
| 2026-05-05 20:30 | 63.50885 | -20.42464 | 13509 ft | 379 kts | 303° |
| 2026-05-05 20:30 | 63.52376 | -20.47319 | 12823 ft | 377 kts | 303° |
| 2026-05-05 20:30 | 63.53845 | -20.52136 | 12139 ft | 372 kts | 304° |
| 2026-05-05 20:30 | 63.55295 | -20.56913 | 11472 ft | 368 kts | 302° |
| 2026-05-05 20:31 | 63.56347 | -20.62108 | 10805 ft | 367 kts | 287° |
| 2026-05-05 20:31 | 63.56992 | -20.67650 | 10307 ft | 369 kts | 285° |
| 2026-05-05 20:31 | 63.57630 | -20.73234 | 10004 ft | 368 kts | 285° |
| 2026-05-05 20:31 | 63.58281 | -20.78794 | 9717 ft | 368 kts | 286° |
| 2026-05-05 20:32 | 63.58943 | -20.84342 | 9429 ft | 367 kts | 287° |
| 2026-05-05 20:32 | 63.59612 | -20.89870 | 9159 ft | 367 kts | 287° |
| 2026-05-05 20:32 | 63.60289 | -20.95398 | 8887 ft | 367 kts | 287° |
| 2026-05-05 20:32 | 63.60964 | -21.00939 | 8617 ft | 367 kts | 287° |
| 2026-05-05 20:33 | 63.61635 | -21.06467 | 8343 ft | 367 kts | 287° |
| 2026-05-05 20:33 | 63.62303 | -21.12006 | 8076 ft | 366 kts | 286° |
| 2026-05-05 20:33 | 63.62955 | -21.17434 | 7811 ft | 364 kts | 287° |
| 2026-05-05 20:33 | 63.63613 | -21.22935 | 7546 ft | 364 kts | 287° |
| 2026-05-05 20:34 | 63.64270 | -21.28510 | 7282 ft | 362 kts | 286° |
| 2026-05-05 20:34 | 63.64908 | -21.33911 | 7020 ft | 362 kts | 287° |
| 2026-05-05 20:34 | 63.65555 | -21.39398 | 6778 ft | 363 kts | 286° |
| 2026-05-05 20:34 | 63.66200 | -21.44897 | 6512 ft | 363 kts | 287° |
| 2026-05-05 20:35 | 63.66843 | -21.50406 | 6242 ft | 364 kts | 287° |
| 2026-05-05 20:35 | 63.67482 | -21.55913 | 5970 ft | 362 kts | 286° |
| 2026-05-05 20:35 | 63.68101 | -21.61245 | 5670 ft | 340 kts | 287° |
| 2026-05-05 20:35 | 63.68671 | -21.66205 | 5445 ft | 315 kts | 287° |
| 2026-05-05 20:36 | 63.69199 | -21.70815 | 5288 ft | 293 kts | 287° |
| 2026-05-05 20:36 | 63.69693 | -21.75137 | 5145 ft | 279 kts | 287° |
| 2026-05-05 20:36 | 63.70172 | -21.79314 | 5008 ft | 273 kts | 287° |
| 2026-05-05 20:36 | 63.70647 | -21.83460 | 4890 ft | 272 kts | 287° |
| 2026-05-05 20:37 | 63.71014 | -21.86665 | 4782 ft | 271 kts | 287° |
| 2026-05-05 20:37 | 63.71329 | -21.89432 | 4674 ft | 270 kts | 287° |
| 2026-05-05 20:37 | 63.71945 | -21.94858 | 4515 ft | 269 kts | 287° |
| 2026-05-05 20:37 | 63.72408 | -21.98941 | 4378 ft | 269 kts | 287° |
| 2026-05-05 20:38 | 63.72868 | -22.03029 | 4243 ft | 269 kts | 287° |
| 2026-05-05 20:38 | 63.73329 | -22.07133 | 4108 ft | 270 kts | 287° |
| 2026-05-05 20:38 | 63.73787 | -22.11234 | 3988 ft | 270 kts | 287° |
| 2026-05-05 20:38 | 63.74246 | -22.15351 | 3853 ft | 271 kts | 287° |
| 2026-05-05 20:39 | 63.74705 | -22.19476 | 3723 ft | 271 kts | 287° |
| 2026-05-05 20:39 | 63.75164 | -22.23604 | 3597 ft | 271 kts | 287° |
| 2026-05-05 20:39 | 63.75620 | -22.27727 | 3471 ft | 268 kts | 287° |
| 2026-05-05 20:39 | 63.76066 | -22.31779 | 3331 ft | 264 kts | 287° |
| 2026-05-05 20:40 | 63.76506 | -22.35791 | 3188 ft | 264 kts | 287° |
| 2026-05-05 20:40 | 63.77040 | -22.39717 | 3031 ft | 261 kts | 306° |
| 2026-05-05 20:40 | 63.78403 | -22.42142 | 2909 ft | 248 kts | 345° |
| 2026-05-05 20:40 | 63.80056 | -22.43057 | 2787 ft | 248 kts | 341° |
| 2026-05-05 20:41 | 63.81353 | -22.45645 | 2611 ft | 260 kts | 302° |
| 2026-05-05 20:41 | 63.81713 | -22.49671 | 2514 ft | 269 kts | 265° |
| 2026-05-05 20:41 | 63.81253 | -22.53762 | 2503 ft | 267 kts | 261° |
| 2026-05-05 20:41 | 63.81073 | -22.57905 | 2491 ft | 262 kts | 276° |
| 2026-05-05 20:42 | 63.81671 | -22.61644 | 2494 ft | 252 kts | 314° |
| 2026-05-05 20:42 | 63.83050 | -22.63703 | 2488 ft | 229 kts | 351° |
| 2026-05-05 20:42 | 63.84467 | -22.63364 | 2471 ft | 187 kts | 31° |
| 2026-05-05 20:42 | 63.85504 | -22.61936 | 2277 ft | 164 kts | 28° |
| 2026-05-05 20:43 | 63.86503 | -22.61035 | 2089 ft | 147 kts | 15° |
| 2026-05-05 20:43 | 63.87454 | -22.60759 | 1914 ft | 132 kts | 12° |
| 2026-05-05 20:43 | 63.88317 | -22.60611 | 1799 ft | 115 kts | 10° |
| 2026-05-05 20:43 | 63.89092 | -22.60568 | 1622 ft | 110 kts | 8° |
| 2026-05-05 20:44 | 63.89836 | -22.60554 | 1473 ft | 108 kts | 7° |
| 2026-05-05 20:44 | 63.90579 | -22.60550 | 1348 ft | 106 kts | 7° |
| 2026-05-05 20:44 | 63.91327 | -22.60548 | 1188 ft | 106 kts | 7° |
| 2026-05-05 20:44 | 63.92055 | -22.60547 | 1049 ft | 106 kts | 7° |
| 2026-05-05 20:45 | 63.93535 | -22.60526 | 765 ft | 106 kts | 6° |
| 2026-05-05 20:45 | 63.94265 | -22.60540 | 644 ft | 107 kts | 6° |
| 2026-05-05 20:45 | 63.95003 | -22.60544 | 485 ft | 107 kts | 4° |
| 2026-05-05 20:46 | 63.95740 | -22.60543 | 333 ft | 102 kts | 4° |
| 2026-05-05 20:46 | 63.96416 | -22.60546 | 183 ft | 100 kts | 3° |
| 2026-05-05 20:46 | 63.97089 | -22.60538 | 161 ft | 87 kts | 1° |
| 2026-05-05 20:46 | 63.97590 | -22.60542 | 173 ft | 62 kts | 0° |
| 2026-05-05 20:47 | 63.97987 | -22.60549 | 170 ft | 52 kts | 354° |
| 2026-05-05 20:47 | 63.98289 | -22.60838 | 165 ft | 36 kts | 330° |
| 2026-05-05 20:47 | 63.98431 | -22.60941 | 165 ft | 9 kts | 360° |
| 2026-05-05 20:47 | 63.98494 | -22.60940 | 169 ft | 9 kts | 0° |
| 2026-05-05 20:48 | 63.98556 | -22.60939 | 168 ft | 9 kts | 1° |
| 2026-05-05 20:48 | 63.98617 | -22.60938 | 167 ft | 9 kts | 1° |
| 2026-05-05 20:48 | 63.98680 | -22.60936 | 166 ft | 13 kts | 358° |
| 2026-05-05 20:48 | 63.98779 | -22.60940 | 165 ft | 9 kts | 0° |
| 2026-05-05 20:49 | 63.98819 | -22.60939 | 166 ft | 6 kts | 1° |
| 2026-05-05 20:49 | 63.98917 | -22.60935 | 170 ft | 17 kts | 1° |
| 2026-05-05 20:49 | 63.99035 | -22.60936 | 169 ft | 17 kts | 360° |
| 2026-05-05 20:49 | 63.99149 | -22.60949 | 164 ft | 16 kts | 341° |
| 2026-05-05 20:50 | 63.99174 | -22.61107 | 160 ft | 12 kts | 269° |
| 2026-05-05 20:50 | 63.99174 | -22.61292 | 156 ft | 22 kts | 270° |
| 2026-05-05 20:50 | 63.99173 | -22.61806 | 144 ft | 26 kts | 270° |
| 2026-05-05 20:50 | 63.99173 | -22.62214 | 142 ft | 22 kts | 271° |
| 2026-05-05 20:51 | 63.99254 | -22.62305 | 142 ft | 10 kts | 0° |
| 2026-05-05 20:51 | 63.99278 | -22.62305 | 142 ft | 2 kts | 0° |
| 2026-05-05 20:51 | 63.99280 | -22.62305 | 142 ft | 0 kts | 1° |